Time;durP1;ratioP1;P1;durP2;ratioP2;P2;SDS_P1;SDS_P2;PMS_P1;PMS_P2;Temp;Humidity;BMP_temperature;BMP_pressure;BME280_temperature;BME280_humidity;BME280_pressure;Samples;Min_cycle;Max_cycle;Signal;HPM_P1;HPM_P2
2024/03/01 00:00:43;;;;;;;6.03;2.25;;;22.10;51.10;;;;;;5049455;28;20132;-66
2024/03/01 00:03:10;;;;;;;4.68;2.50;;;22.10;51.10;;;;;;5048836;28;20071;-66
2024/03/01 00:05:36;;;;;;;4.03;2.13;;;22.10;51.10;;;;;;5049201;28;20060;-66
2024/03/01 00:08:04;;;;;;;4.57;2.40;;;22.10;51.10;;;;;;5049630;28;20053;-66
2024/03/01 00:10:31;;;;;;;2.97;1.75;;;22.10;51.20;;;;;;5048663;28;20045;-66
2024/03/01 00:12:58;;;;;;;4.53;2.38;;;22.00;51.10;;;;;;5049445;28;20049;-66
2024/03/01 00:15:25;;;;;;;3.58;2.30;;;22.00;51.10;;;;;;5049671;28;20144;-66
2024/03/01 00:17:52;;;;;;;3.42;2.40;;;22.00;51.10;;;;;;5047398;28;20488;-66
2024/03/01 00:20:18;;;;;;;3.33;2.13;;;22.00;51.10;;;;;;5049291;28;20057;-67
2024/03/01 00:22:47;;;;;;;3.55;2.30;;;22.00;51.10;;;;;;5049422;28;20102;-66
2024/03/01 00:25:14;;;;;;;2.78;1.80;;;22.00;51.10;;;;;;5047628;28;20060;-66
2024/03/01 00:27:41;;;;;;;2.60;1.80;;;22.00;51.10;;;;;;5049409;28;20063;-66
2024/03/01 00:30:09;;;;;;;4.47;2.10;;;21.90;51.10;;;;;;5049225;28;20049;-66
2024/03/01 00:32:36;;;;;;;3.75;2.25;;;21.90;51.10;;;;;;5048327;28;20098;-66
2024/03/01 00:35:03;;;;;;;3.60;2.38;;;21.90;51.10;;;;;;5045743;28;20103;-66
2024/03/01 00:37:30;;;;;;;3.38;2.45;;;21.90;51.10;;;;;;5048121;28;20064;-66
2024/03/01 00:39:57;;;;;;;3.10;2.15;;;21.90;51.10;;;;;;5049507;28;20045;-66
2024/03/01 00:42:24;;;;;;;3.10;2.38;;;21.90;51.10;;;;;;5049323;28;20064;-66
2024/03/01 00:44:51;;;;;;;2.25;2.00;;;21.90;51.10;;;;;;5064671;28;20060;-66
2024/03/01 00:47:18;;;;;;;4.93;2.78;;;21.80;51.10;;;;;;5049038;28;20045;-66
2024/03/01 00:49:45;;;;;;;3.33;2.05;;;21.80;51.10;;;;;;5049026;28;20059;-66
2024/03/01 00:52:12;;;;;;;3.63;2.13;;;21.80;51.10;;;;;;5050376;28;20060;-66
2024/03/01 00:54:39;;;;;;;3.38;2.00;;;21.80;51.10;;;;;;5053404;28;20071;-66
2024/03/01 00:57:06;;;;;;;4.18;2.30;;;21.70;51.10;;;;;;5053219;28;20589;-66
2024/03/01 00:59:33;;;;;;;3.03;2.28;;;21.70;51.10;;;;;;5051847;28;20107;-66
2024/03/01 01:02:00;;;;;;;2.58;2.20;;;21.70;51.10;;;;;;5051929;28;20400;-66
2024/03/01 01:04:27;;;;;;;3.70;2.30;;;21.70;51.10;;;;;;5051539;28;20497;-66
2024/03/01 01:06:54;;;;;;;2.33;1.90;;;21.70;51.10;;;;;;5051552;28;20191;-66
2024/03/01 01:09:21;;;;;;;3.72;2.22;;;21.70;51.10;;;;;;5051745;28;20045;-66
2024/03/01 01:11:50;;;;;;;4.20;2.15;;;21.70;51.10;;;;;;5051314;28;20083;-66
2024/03/01 01:14:17;;;;;;;3.90;2.30;;;21.70;51.10;;;;;;5051453;28;20491;-66
2024/03/01 01:16:44;;;;;;;4.50;2.60;;;21.70;51.20;;;;;;5051377;28;20102;-66
2024/03/01 01:19:11;;;;;;;5.80;2.97;;;21.60;51.10;;;;;;5051463;28;20518;-66
2024/03/01 01:21:38;;;;;;;3.95;2.30;;;21.60;51.10;;;;;;5085067;28;20059;-66
2024/03/01 01:24:05;;;;;;;3.50;2.13;;;21.60;51.10;;;;;;5052954;28;20063;-66
2024/03/01 01:26:32;;;;;;;3.30;2.13;;;21.60;51.10;;;;;;5051955;28;20041;-66
2024/03/01 01:29:02;;;;;;;3.83;2.33;;;21.60;51.10;;;;;;5051781;28;20098;-66
2024/03/01 01:31:29;;;;;;;3.42;2.28;;;21.60;51.20;;;;;;5052762;28;20129;-66
2024/03/01 01:33:56;;;;;;;3.78;2.45;;;21.60;51.20;;;;;;5050948;28;20045;-66
2024/03/01 01:36:23;;;;;;;3.30;2.10;;;21.50;51.10;;;;;;5052176;28;20045;-66
2024/03/01 01:38:50;;;;;;;3.85;2.50;;;21.50;51.10;;;;;;5049782;28;20053;-66
2024/03/01 01:41:17;;;;;;;4.40;2.53;;;21.50;51.10;;;;;;5084463;28;20064;-66
2024/03/01 01:43:44;;;;;;;2.72;1.98;;;21.50;51.10;;;;;;5050856;28;20521;-66
2024/03/01 01:46:14;;;;;;;2.78;1.77;;;21.50;51.10;;;;;;5051798;28;20060;-66
2024/03/01 01:48:45;;;;;;;3.05;2.17;;;21.50;51.10;;;;;;5051820;28;20052;-66
2024/03/01 01:51:14;;;;;;;2.60;1.90;;;21.50;51.10;;;;;;5048329;28;20049;-66
2024/03/01 01:53:42;;;;;;;3.25;2.10;;;21.50;51.10;;;;;;5052215;28;20103;-66
2024/03/01 01:56:12;;;;;;;3.28;2.15;;;21.50;51.10;;;;;;5079964;28;20517;-66
2024/03/01 01:58:39;;;;;;;3.67;2.28;;;21.50;51.10;;;;;;5051861;28;20446;-66
2024/03/01 02:01:10;;;;;;;4.00;2.28;;;21.40;51.00;;;;;;5051634;28;20118;-66
2024/03/01 02:03:39;;;;;;;3.25;1.98;;;21.40;51.00;;;;;;5051875;28;20060;-66
2024/03/01 02:06:07;;;;;;;3.28;2.17;;;21.40;51.10;;;;;;5051685;28;20080;-66
2024/03/01 02:08:40;;;;;;;4.13;2.60;;;21.40;51.00;;;;;;5081340;28;20503;-66
2024/03/01 02:11:08;;;;;;;2.90;2.17;;;21.40;51.00;;;;;;5051851;28;20045;-66
2024/03/01 02:13:34;;;;;;;2.88;2.00;;;21.40;50.90;;;;;;5051864;28;20056;-66
2024/03/01 02:16:01;;;;;;;3.50;2.38;;;21.40;51.00;;;;;;5050093;28;20487;-66
2024/03/01 02:18:29;;;;;;;3.85;2.47;;;21.40;50.90;;;;;;5049731;28;20057;-66
2024/03/01 02:21:01;;;;;;;2.95;1.90;;;21.40;50.90;;;;;;5051233;28;20061;-66
2024/03/01 02:23:28;;;;;;;2.63;1.80;;;21.40;50.90;;;;;;5051320;28;20099;-66
2024/03/01 02:25:55;;;;;;;2.38;1.90;;;21.40;50.90;;;;;;5051118;28;20052;-66
2024/03/01 02:28:22;;;;;;;2.83;1.75;;;21.40;50.90;;;;;;5051445;28;20163;-66
2024/03/01 02:30:52;;;;;;;3.13;1.73;;;21.40;50.90;;;;;;5051298;28;20498;-66
2024/03/01 02:33:22;;;;;;;3.67;2.03;;;21.30;50.90;;;;;;5050236;28;20067;-66
2024/03/01 02:35:49;;;;;;;1.95;1.75;;;21.30;50.80;;;;;;5051083;28;20099;-66
2024/03/01 02:38:16;;;;;;;2.80;1.95;;;21.30;50.90;;;;;;5051360;28;20398;-66
2024/03/01 02:40:43;;;;;;;1.98;1.60;;;21.30;50.90;;;;;;5051362;28;20439;-66
2024/03/01 02:43:13;;;;;;;1.70;1.58;;;21.30;50.90;;;;;;5048077;28;20053;-66
2024/03/01 02:45:40;;;;;;;3.40;1.90;;;21.30;50.90;;;;;;5049771;28;20045;-66
2024/03/01 02:48:07;;;;;;;2.42;1.85;;;21.30;50.90;;;;;;5050074;28;20044;-66
2024/03/01 02:50:33;;;;;;;3.50;1.65;;;21.30;51.00;;;;;;5047932;28;20049;-66
2024/03/01 02:53:00;;;;;;;4.20;2.42;;;21.30;50.90;;;;;;5050800;28;20045;-66
2024/03/01 02:55:27;;;;;;;3.33;2.35;;;21.30;50.90;;;;;;5050772;28;20041;-66
2024/03/01 02:57:55;;;;;;;2.85;1.92;;;21.30;50.90;;;;;;5050995;28;20774;-66
2024/03/01 03:00:23;;;;;;;2.47;1.60;;;21.30;50.90;;;;;;5050645;28;20052;-66
2024/03/01 03:02:54;;;;;;;3.08;1.58;;;21.30;50.90;;;;;;5050837;28;20075;-66
2024/03/01 03:05:24;;;;;;;1.98;1.60;;;21.30;50.90;;;;;;5049584;28;20091;-66
2024/03/01 03:07:51;;;;;;;4.47;2.20;;;21.30;50.90;;;;;;5050848;28;20434;-66
2024/03/01 03:10:17;;;;;;;3.70;2.00;;;21.30;50.90;;;;;;5049555;28;20503;-66
2024/03/01 03:12:44;;;;;;;4.05;1.70;;;21.30;50.90;;;;;;5049089;28;20055;-66
2024/03/01 03:15:13;;;;;;;2.58;1.85;;;21.30;50.90;;;;;;5049692;28;20472;-66
2024/03/01 03:17:40;;;;;;;4.22;2.13;;;21.30;50.90;;;;;;5050104;28;20488;-66
2024/03/01 03:20:11;;;;;;;3.10;2.17;;;21.20;50.90;;;;;;5049316;28;20070;-66
2024/03/01 03:22:40;;;;;;;2.83;1.90;;;21.20;50.90;;;;;;5082466;28;20483;-66
2024/03/01 03:25:08;;;;;;;2.50;1.55;;;21.20;50.90;;;;;;5082486;28;20516;-66
2024/03/01 03:27:35;;;;;;;2.60;1.70;;;21.20;50.90;;;;;;5050026;28;20049;-66
2024/03/01 03:30:02;;;;;;;1.92;1.48;;;21.20;50.90;;;;;;5049212;28;20056;-66
2024/03/01 03:32:29;;;;;;;2.92;2.00;;;21.20;50.90;;;;;;5049848;28;20056;-66
2024/03/01 03:34:56;;;;;;;2.55;1.77;;;21.20;50.90;;;;;;5048566;28;20045;-66
2024/03/01 03:37:23;;;;;;;3.80;2.20;;;21.20;50.90;;;;;;5049912;28;20056;-66
2024/03/01 03:39:50;;;;;;;2.33;1.30;;;21.20;50.90;;;;;;5048766;28;20131;-66
2024/03/01 03:42:17;;;;;;;2.92;1.98;;;21.20;50.90;;;;;;5048712;28;20055;-66
2024/03/01 03:44:44;;;;;;;2.33;1.80;;;21.20;51.50;;;;;;5050088;28;20106;-66
2024/03/01 03:47:11;;;;;;;4.35;2.45;;;21.20;50.90;;;;;;5048146;28;20044;-66
2024/03/01 03:49:38;;;;;;;2.80;1.92;;;21.20;50.90;;;;;;5046842;28;20392;-66
2024/03/01 03:52:05;;;;;;;2.83;1.88;;;21.20;50.90;;;;;;5082419;28;20057;-66
2024/03/01 03:54:32;;;;;;;2.97;1.73;;;21.20;50.90;;;;;;5049934;28;20048;-66
2024/03/01 03:56:59;;;;;;;4.57;1.90;;;21.20;50.90;;;;;;5049472;28;20048;-66
2024/03/01 03:59:26;;;;;;;2.60;2.03;;;21.10;51.00;;;;;;5049653;28;20053;-66
2024/03/01 04:01:53;;;;;;;4.68;1.98;;;21.10;50.80;;;;;;5048672;28;20040;-66
2024/03/01 04:04:20;;;;;;;3.05;2.17;;;21.10;50.80;;;;;;5048414;28;20080;-66
2024/03/01 04:06:47;;;;;;;3.08;1.90;;;21.10;51.40;;;;;;5049375;28;20499;-66
2024/03/01 04:09:15;;;;;;;3.10;1.95;;;21.10;50.80;;;;;;5049633;28;20071;-66
2024/03/01 04:11:42;;;;;;;2.33;1.67;;;21.10;50.80;;;;;;5050059;28;20045;-66
2024/03/01 04:14:12;;;;;;;4.65;2.10;;;21.10;50.80;;;;;;5049587;28;20045;-66
2024/03/01 04:16:39;;;;;;;3.83;2.08;;;21.10;50.80;;;;;;5049874;28;20794;-66
2024/03/01 04:19:08;;;;;;;3.08;1.67;;;21.10;50.80;;;;;;5048328;28;20055;-66
2024/03/01 04:21:37;;;;;;;3.28;1.90;;;21.10;50.90;;;;;;5049801;28;20461;-67
2024/03/01 04:24:12;;;;;;;2.65;1.70;;;21.10;50.80;;;;;;5049518;28;20926;-66
2024/03/01 04:26:40;;;;;;;2.90;1.70;;;21.10;50.90;;;;;;5047771;28;20442;-66
2024/03/01 04:29:07;;;;;;;4.22;1.85;;;21.10;50.80;;;;;;5053763;28;20052;-66
2024/03/01 04:31:35;;;;;;;3.63;2.30;;;21.10;50.80;;;;;;5050466;28;20049;-66
2024/03/01 04:34:06;;;;;;;1.88;1.55;;;21.10;50.90;;;;;;5053259;28;20051;-66
2024/03/01 04:36:34;;;;;;;2.30;1.85;;;21.10;50.90;;;;;;5052199;28;20048;-66
2024/03/01 04:39:02;;;;;;;4.32;2.08;;;21.10;50.90;;;;;;5052261;28;20388;-66
2024/03/01 04:41:30;;;;;;;2.22;1.58;;;21.10;50.80;;;;;;5053544;28;20451;-66
2024/03/01 04:43:56;;;;;;;3.10;2.05;;;21.20;50.90;;;;;;5053146;28;20052;-66
2024/03/01 04:46:23;;;;;;;4.50;2.15;;;21.20;50.80;;;;;;5053304;28;20048;-66
2024/03/01 04:48:50;;;;;;;3.17;1.67;;;21.20;50.70;;;;;;5085398;28;20053;-66
2024/03/01 04:51:23;;;;;;;2.42;1.70;;;21.30;50.80;;;;;;5053532;28;20490;-66
2024/03/01 04:53:50;;;;;;;3.08;2.13;;;21.30;50.70;;;;;;5053611;28;20792;-66
2024/03/01 04:56:19;;;;;;;2.60;2.08;;;21.30;50.70;;;;;;5053061;28;20048;-66
2024/03/01 04:58:48;;;;;;;3.30;2.00;;;21.30;50.60;;;;;;5052292;28;20103;-66
2024/03/01 05:01:16;;;;;;;3.33;1.80;;;21.40;50.70;;;;;;5053171;28;20056;-66
2024/03/01 05:03:44;;;;;;;2.45;1.90;;;21.40;50.60;;;;;;5052881;28;20118;-66
2024/03/01 05:06:12;;;;;;;2.80;1.95;;;21.40;50.50;;;;;;5049525;28;20092;-66
2024/03/01 05:08:39;;;;;;;4.70;2.30;;;21.50;50.60;;;;;;5052956;28;20430;-66
2024/03/01 05:11:06;;;;;;;2.63;1.42;;;21.50;50.50;;;;;;5084845;28;20073;-67
2024/03/01 05:13:33;;;;;;;2.78;1.70;;;21.50;50.50;;;;;;5052082;28;20468;-66
2024/03/01 05:16:00;;;;;;;3.90;1.90;;;21.60;50.50;;;;;;5084897;28;20045;-66
2024/03/01 05:18:30;;;;;;;2.97;1.90;;;21.60;50.50;;;;;;5051232;28;20049;-66
2024/03/01 05:20:57;;;;;;;3.25;1.98;;;21.70;50.50;;;;;;5050833;28;20122;-66
2024/03/01 05:23:24;;;;;;;4.53;1.83;;;21.70;50.50;;;;;;5049623;28;20049;-66
2024/03/01 05:25:51;;;;;;;2.67;2.28;;;21.70;50.40;;;;;;5052667;28;20403;-66
2024/03/01 05:28:19;;;;;;;2.70;1.88;;;21.70;50.40;;;;;;5050834;28;20049;-66
2024/03/01 05:30:46;;;;;;;2.67;1.85;;;21.80;50.40;;;;;;5050450;28;20471;-66
2024/03/01 05:33:18;;;;;;;5.05;2.03;;;21.80;50.30;;;;;;5051732;28;20072;-66
2024/03/01 05:35:46;;;;;;;2.40;1.70;;;21.80;50.30;;;;;;5052225;28;20077;-66
2024/03/01 05:38:13;;;;;;;2.95;1.75;;;21.80;50.30;;;;;;5051885;28;20049;-66
2024/03/01 05:40:40;;;;;;;2.90;2.00;;;21.80;50.30;;;;;;5052059;28;20067;-66
2024/03/01 05:43:21;;;;;;;3.47;2.00;;;21.90;50.30;;;;;;5080952;28;20476;-66
2024/03/01 05:45:51;;;;;;;2.88;2.00;;;21.90;50.30;;;;;;5052081;28;20049;-66
2024/03/01 05:48:18;;;;;;;2.72;1.90;;;21.90;50.30;;;;;;5052263;28;20049;-66
2024/03/01 05:50:45;;;;;;;3.42;2.00;;;21.90;50.20;;;;;;5051679;28;20090;-66
2024/03/01 05:53:14;;;;;;;3.47;2.25;;;21.90;50.20;;;;;;5048128;28;20041;-66
2024/03/01 05:55:44;;;;;;;3.35;2.15;;;21.90;50.30;;;;;;5052056;28;20061;-66
2024/03/01 05:58:10;;;;;;;3.50;1.92;;;21.90;50.20;;;;;;5084063;28;20054;-66
2024/03/01 06:00:42;;;;;;;4.85;1.90;;;21.90;50.20;;;;;;5050733;28;20049;-66
2024/03/01 06:03:10;;;;;;;3.50;2.20;;;21.90;50.20;;;;;;5050674;28;20060;-67
2024/03/01 06:05:40;;;;;;;3.00;1.80;;;21.90;50.20;;;;;;5051170;28;20060;-66
2024/03/01 06:08:07;;;;;;;4.13;2.10;;;21.90;50.30;;;;;;5051355;28;20048;-66
2024/03/01 06:10:34;;;;;;;3.90;2.10;;;21.90;50.20;;;;;;5052098;28;20098;-66
2024/03/01 06:13:02;;;;;;;6.10;2.28;;;21.90;50.30;;;;;;5050556;28;20066;-66
2024/03/01 06:15:28;;;;;;;3.10;1.90;;;21.80;50.20;;;;;;5051168;28;20128;-66
2024/03/01 06:17:55;;;;;;;5.07;2.33;;;21.80;50.20;;;;;;5051886;28;20403;-66
2024/03/01 06:20:22;;;;;;;2.33;1.85;;;21.80;50.20;;;;;;5051319;28;20124;-66
2024/03/01 06:22:49;;;;;;;6.20;2.28;;;21.80;50.10;;;;;;5051226;28;20060;-66
2024/03/01 06:25:16;;;;;;;5.55;2.80;;;21.80;50.10;;;;;;5051517;28;20457;-66
2024/03/01 06:27:43;;;;;;;4.35;1.90;;;21.80;50.10;;;;;;5051797;28;20041;-66
2024/03/01 06:30:10;;;;;;;3.90;2.40;;;21.80;50.10;;;;;;5054820;28;20118;-67
2024/03/01 06:32:37;;;;;;;6.13;2.10;;;21.80;50.20;;;;;;5067862;28;20501;-67
2024/03/01 06:35:04;;;;;;;17.45;2.38;;;21.80;50.20;;;;;;5044546;28;20484;-68
2024/03/01 06:37:31;;;;;;;6.00;2.55;;;21.70;50.20;;;;;;5048199;28;20053;-68
2024/03/01 06:39:59;;;;;;;12.25;2.35;;;21.70;50.20;;;;;;5049704;28;20056;-68
2024/03/01 06:42:26;;;;;;;8.20;2.88;;;21.70;50.20;;;;;;5050299;28;20045;-68
2024/03/01 06:44:53;;;;;;;3.80;2.20;;;21.70;50.10;;;;;;5044909;28;20107;-65
2024/03/01 06:47:19;;;;;;;8.77;2.35;;;21.70;50.30;;;;;;5047732;28;20499;-66
2024/03/01 06:49:48;;;;;;;11.05;2.67;;;21.70;50.20;;;;;;5048294;28;20146;-63
2024/03/01 06:52:15;;;;;;;8.55;2.40;;;21.80;50.60;;;;;;5049868;28;20045;-62
2024/03/01 06:54:45;;;;;;;19.92;3.08;;;21.80;50.50;;;;;;5050314;28;20045;-60
2024/03/01 06:57:12;;;;;;;13.15;2.95;;;21.80;51.10;;;;;;5048567;28;20085;-60
2024/03/01 06:59:39;;;;;;;8.32;2.45;;;21.80;50.50;;;;;;5046619;28;20095;-61
2024/03/01 07:02:06;;;;;;;8.02;2.50;;;21.80;50.50;;;;;;5050518;28;20404;-61
2024/03/01 07:04:33;;;;;;;7.32;2.47;;;21.90;50.60;;;;;;5049736;28;20734;-61
2024/03/01 07:07:01;;;;;;;8.95;2.63;;;21.90;50.60;;;;;;5049548;28;20060;-62
2024/03/01 07:09:30;;;;;;;4.35;2.10;;;21.90;50.70;;;;;;5050829;28;20051;-61
2024/03/01 07:11:57;;;;;;;8.77;2.60;;;21.90;50.70;;;;;;5048841;28;20045;-61
2024/03/01 07:14:24;;;;;;;6.55;2.88;;;21.90;50.80;;;;;;5048136;28;20045;-62
2024/03/01 07:16:50;;;;;;;17.35;2.20;;;21.90;51.00;;;;;;5050346;28;20430;-61
2024/03/01 07:19:18;;;;;;;7.63;2.50;;;22.00;51.10;;;;;;5049590;28;20411;-60
2024/03/01 07:21:45;;;;;;;5.05;2.30;;;22.00;51.20;;;;;;5047097;28;20053;-61
2024/03/01 07:24:14;;;;;;;4.05;2.22;;;22.00;51.30;;;;;;5049432;28;20106;-61
2024/03/01 07:26:41;;;;;;;10.27;2.47;;;22.00;51.20;;;;;;5048553;28;20080;-61
2024/03/01 07:29:07;;;;;;;5.57;2.42;;;22.00;51.20;;;;;;5050025;28;20041;-61
2024/03/01 07:31:34;;;;;;;6.25;2.33;;;22.00;51.20;;;;;;5081373;28;20052;-60
2024/03/01 07:34:02;;;;;;;6.35;2.05;;;22.10;51.30;;;;;;5049814;28;20511;-60
2024/03/01 07:36:29;;;;;;;7.55;2.13;;;22.10;51.40;;;;;;5081523;28;20045;-60
2024/03/01 07:38:56;;;;;;;2.65;1.75;;;22.10;51.40;;;;;;5048390;28;20119;-60
2024/03/01 07:41:23;;;;;;;2.92;2.00;;;22.10;51.30;;;;;;5049486;28;20502;-61
2024/03/01 07:43:52;;;;;;;7.57;2.20;;;22.20;51.40;;;;;;5048745;28;20059;-61
2024/03/01 07:46:18;;;;;;;6.13;2.38;;;22.20;51.50;;;;;;5048759;28;20052;-60
2024/03/01 07:48:46;;;;;;;9.40;2.45;;;22.20;51.40;;;;;;5049812;28;20045;-62
2024/03/01 07:51:13;;;;;;;9.13;2.08;;;22.30;51.40;;;;;;5049763;28;20111;-61
2024/03/01 07:53:47;;;;;;;5.88;2.17;;;22.30;51.40;;;;;;5049037;28;20069;-61
2024/03/01 07:56:14;;;;;;;6.82;2.00;;;22.30;51.30;;;;;;5046488;28;20095;-62
2024/03/01 07:58:41;;;;;;;5.35;2.05;;;22.30;51.30;;;;;;5042769;28;20072;-61
2024/03/01 08:01:08;;;;;;;5.30;2.15;;;22.40;51.40;;;;;;5048298;28;20052;-64
2024/03/01 08:03:35;;;;;;;4.68;2.03;;;22.40;51.40;;;;;;5048918;28;20063;-62
2024/03/01 08:06:03;;;;;;;4.50;2.00;;;22.40;51.30;;;;;;5080394;28;20060;-63
2024/03/01 08:08:35;;;;;;;17.45;2.63;;;22.40;51.30;;;;;;5045212;28;20041;-65
2024/03/01 08:11:09;;;;;;;6.35;1.98;;;22.40;51.50;;;;;;5048650;28;20071;-65
2024/03/01 08:13:37;;;;;;;4.88;2.20;;;22.40;51.40;;;;;;5047652;28;20076;-65
2024/03/01 08:16:10;;;;;;;7.25;1.73;;;22.40;51.40;;;;;;5049816;28;20167;-64
2024/03/01 08:18:39;;;;;;;3.75;1.80;;;22.40;51.50;;;;;;5045856;28;20476;-64
2024/03/01 08:21:07;;;;;;;9.68;2.35;;;22.40;51.50;;;;;;5049003;28;20045;-67
2024/03/01 08:23:38;;;;;;;9.80;2.47;;;22.40;51.60;;;;;;5047903;28;20045;-68
2024/03/01 08:26:17;;;;;;;7.70;2.55;;;22.40;51.00;;;;;;5050312;28;20468;-68
2024/03/01 08:28:47;;;;;;;5.03;2.65;;;22.40;51.00;;;;;;5065463;28;20048;-68
2024/03/01 08:31:34;;;;;;;7.82;2.35;;;22.30;50.50;;;;;;5043745;28;20056;-66
2024/03/01 08:34:21;;;;;;;8.88;2.75;;;22.30;50.80;;;;;;5040728;28;20144;-61
2024/03/01 08:36:54;;;;;;;6.15;2.42;;;22.30;51.00;;;;;;5047683;28;20102;-61
2024/03/01 08:39:23;;;;;;;7.28;2.50;;;22.40;51.20;;;;;;5050012;28;20081;-61
2024/03/01 08:41:52;;;;;;;7.28;2.53;;;22.40;51.20;;;;;;5048608;28;20045;-62
2024/03/01 08:44:40;;;;;;;8.13;2.42;;;22.40;51.40;;;;;;5080190;28;20048;-62
2024/03/01 08:47:57;;;;;;;12.82;3.00;;;22.40;51.50;;;;;;5048353;28;20124;-59
2024/03/01 08:50:36;;;;;;;9.27;2.58;;;22.40;51.50;;;;;;5037065;28;20468;-58
2024/03/01 08:53:48;;;;;;;4.78;2.20;;;22.40;51.90;;;;;;5048974;28;20053;-59
2024/03/01 08:56:20;;;;;;;8.88;2.38;;;22.40;51.80;;;;;;5041673;28;20063;-62
2024/03/01 08:58:48;;;;;;;3.60;2.15;;;22.40;51.60;;;;;;5048586;28;20057;-63
2024/03/01 09:01:33;;;;;;;6.32;2.25;;;22.40;51.70;;;;;;5048781;28;20041;-62
2024/03/01 09:04:19;;;;;;;9.40;2.83;;;22.30;51.80;;;;;;5048792;28;20837;-61
2024/03/01 09:06:53;;;;;;;6.32;2.30;;;22.40;51.70;;;;;;5042863;28;20126;-61
2024/03/01 09:09:23;;;;;;;4.78;2.03;;;22.30;51.80;;;;;;5045791;28;20127;-61
2024/03/01 09:11:52;;;;;;;7.10;2.35;;;22.30;51.80;;;;;;5045198;28;20051;-60
2024/03/01 09:14:46;;;;;;;11.25;3.50;;;22.30;51.90;;;;;;5049150;28;20545;-61
2024/03/01 09:17:14;;;;;;;7.57;2.22;;;22.30;51.90;;;;;;5038672;28;20052;-61
2024/03/01 09:19:47;;;;;;;6.93;2.67;;;22.30;52.10;;;;;;5051701;28;20052;-61
2024/03/01 09:22:19;;;;;;;8.10;2.40;;;22.20;51.80;;;;;;5053460;28;20041;-60
2024/03/01 09:24:47;;;;;;;4.85;2.33;;;22.20;51.70;;;;;;5082736;28;20131;-60
2024/03/01 09:27:29;;;;;;;7.97;2.38;;;22.20;51.70;;;;;;5049710;28;20048;-61
2024/03/01 09:29:57;;;;;;;7.55;2.58;;;22.20;51.60;;;;;;5051689;28;20052;-61
2024/03/01 09:32:25;;;;;;;7.57;2.50;;;22.20;51.60;;;;;;5050717;28;20830;-59
2024/03/01 09:34:52;;;;;;;9.43;3.05;;;22.20;51.60;;;;;;5051284;28;20056;-61
2024/03/01 09:37:21;;;;;;;9.77;2.50;;;22.20;51.60;;;;;;5050816;28;20076;-60
2024/03/01 09:39:50;;;;;;;4.07;2.35;;;22.20;51.60;;;;;;5083204;28;20084;-61
2024/03/01 09:42:36;;;;;;;10.73;2.75;;;22.20;51.20;;;;;;5051967;28;20122;-61
2024/03/01 09:45:31;;;;;;;4.53;2.40;;;22.20;51.20;;;;;;5050211;28;20056;-60
2024/03/01 09:48:11;;;;;;;8.52;2.85;;;22.30;51.30;;;;;;5083120;28;20115;-61
2024/03/01 09:51:04;;;;;;;6.03;2.45;;;22.30;51.40;;;;;;5050428;28;20452;-63
2024/03/01 09:54:05;;;;;;;9.70;2.58;;;22.30;51.60;;;;;;5078117;28;20507;-64
2024/03/01 09:56:56;;;;;;;4.82;2.20;;;22.40;52.10;;;;;;5048984;28;20064;-66
2024/03/01 09:59:56;;;;;;;6.28;2.50;;;22.40;51.90;;;;;;5044570;28;20041;-65
2024/03/01 10:02:44;;;;;;;5.95;2.53;;;22.50;52.10;;;;;;5047205;28;20403;-65
2024/03/01 10:05:14;;;;;;;4.95;2.67;;;22.50;52.10;;;;;;5047282;28;20514;-64
2024/03/01 10:08:09;;;;;;;8.18;2.67;;;22.60;52.30;;;;;;5082772;28;20045;-66
2024/03/01 10:11:05;;;;;;;8.88;2.47;;;22.70;52.30;;;;;;5045962;28;20045;-67
2024/03/01 10:13:52;;;;;;;5.05;2.40;;;22.70;52.20;;;;;;5079442;28;20037;-65
2024/03/01 10:16:28;;;;;;;5.65;2.35;;;22.80;52.20;;;;;;5047173;28;20483;-65
2024/03/01 10:18:58;;;;;;;5.10;2.45;;;22.80;52.30;;;;;;5078571;28;20126;-64
2024/03/01 10:21:46;;;;;;;7.85;2.25;;;22.90;52.10;;;;;;5050422;28;20045;-64
2024/03/01 10:24:22;;;;;;;3.55;2.13;;;23.00;52.30;;;;;;5051304;28;20874;-66
2024/03/01 10:27:03;;;;;;;18.85;5.35;;;23.10;52.30;;;;;;5047598;28;20132;-66
2024/03/01 10:29:58;;;;;;;33.33;9.52;;;23.10;51.80;;;;;;5047841;28;20448;-65
2024/03/01 10:32:25;;;;;;;41.20;8.77;;;23.10;52.10;;;;;;5055805;28;20052;-63
2024/03/01 10:35:02;;;;;;;40.92;7.75;;;23.20;52.40;;;;;;5044304;28;20456;-64
2024/03/01 10:38:07;;;;;;;29.33;7.22;;;23.10;52.10;;;;;;5047754;28;20487;-66
2024/03/01 10:40:50;;;;;;;26.02;6.85;;;23.20;52.20;;;;;;5081713;28;20056;-67
2024/03/01 10:43:26;;;;;;;24.35;6.80;;;23.20;51.90;;;;;;5032166;28;20057;-66
2024/03/01 10:45:59;;;;;;;19.27;6.93;;;23.20;51.80;;;;;;5025349;28;20049;-60
2024/03/01 10:48:53;;;;;;;32.60;6.47;;;23.20;51.80;;;;;;5032957;28;20041;-64
2024/03/01 10:51:23;;;;;;;27.85;7.10;;;23.30;51.60;;;;;;5063676;28;20062;-63
2024/03/01 10:53:55;;;;;;;24.45;6.75;;;23.30;51.50;;;;;;5063586;28;20083;-55
2024/03/01 10:56:23;;;;;;;23.70;6.85;;;23.30;51.40;;;;;;5046969;28;20052;-56
2024/03/01 10:58:54;;;;;;;28.08;6.93;;;23.40;51.50;;;;;;5050751;28;20095;-57
2024/03/01 11:01:36;;;;;;;22.02;6.07;;;23.40;51.10;;;;;;5047166;28;20049;-57
2024/03/01 11:04:09;;;;;;;19.50;5.78;;;23.50;52.30;;;;;;5081734;28;20049;-57
2024/03/01 11:07:08;;;;;;;23.02;6.35;;;23.50;52.30;;;;;;5048651;28;20064;-58
2024/03/01 11:10:15;;;;;;;22.10;6.55;;;23.70;50.90;;;;;;5081422;28;20048;-57
2024/03/01 11:12:47;;;;;;;25.45;6.80;;;23.80;51.10;;;;;;5041263;28;20045;-59
2024/03/01 11:15:15;;;;;;;20.13;5.72;;;23.90;53.70;;;;;;5049565;28;20056;-60
2024/03/01 11:17:47;;;;;;;20.38;5.72;;;24.00;51.80;;;;;;5048581;28;20725;-59
2024/03/01 11:20:32;;;;;;;23.80;5.72;;;24.10;51.40;;;;;;5047854;28;20060;-58
2024/03/01 11:23:40;;;;;;;17.02;5.93;;;24.20;51.10;;;;;;5049403;28;20049;-56
2024/03/01 11:26:15;;;;;;;21.13;6.25;;;24.20;49.80;;;;;;5012995;28;20065;-58
2024/03/01 11:28:47;;;;;;;25.10;5.82;;;24.30;49.40;;;;;;5009110;28;20108;-56
2024/03/01 11:31:21;;;;;;;16.73;5.95;;;24.30;50.00;;;;;;5029027;28;20045;-58
2024/03/01 11:33:49;;;;;;;18.85;5.28;;;24.30;49.50;;;;;;5061113;28;20159;-59
2024/03/01 11:36:40;;;;;;;19.35;5.53;;;24.20;50.50;;;;;;5048070;28;20103;-58
2024/03/01 11:39:26;;;;;;;18.63;5.20;;;24.20;49.40;;;;;;5046917;28;20049;-57
2024/03/01 11:42:29;;;;;;;15.75;5.32;;;24.20;49.50;;;;;;5048875;28;20511;-53
2024/03/01 11:45:45;;;;;;;15.93;5.05;;;24.10;49.50;;;;;;5041850;28;20048;-57
2024/03/01 11:48:36;;;;;;;18.70;4.85;;;24.30;49.60;;;;;;5014447;28;20445;-57
2024/03/01 11:51:10;;;;;;;20.90;5.00;;;24.40;49.70;;;;;;5048269;28;20107;-55
2024/03/01 11:54:03;;;;;;;22.52;5.03;;;24.40;49.50;;;;;;5047250;28;20044;-58
2024/03/01 11:56:48;;;;;;;13.32;4.45;;;24.40;49.50;;;;;;5047895;28;20056;-55
2024/03/01 11:59:31;;;;;;;17.48;5.07;;;24.50;49.50;;;;;;5047536;28;20056;-58
2024/03/01 12:02:21;;;;;;;14.20;4.63;;;24.50;49.50;;;;;;5048834;28;20627;-55
2024/03/01 12:05:25;;;;;;;15.25;4.82;;;24.50;49.60;;;;;;5047103;28;20053;-52
2024/03/01 12:08:15;;;;;;;16.35;4.60;;;24.50;49.70;;;;;;5044266;28;20052;-57
2024/03/01 12:11:01;;;;;;;13.38;4.45;;;24.50;49.70;;;;;;5044260;28;20080;-57
2024/03/01 12:13:31;;;;;;;13.75;5.03;;;24.40;49.80;;;;;;5045648;28;20049;-58
2024/03/01 12:16:06;;;;;;;19.02;5.93;;;24.40;49.60;;;;;;5046778;28;20053;-58
2024/03/01 12:18:48;;;;;;;14.00;5.55;;;24.30;50.20;;;;;;5081048;28;20045;-57
2024/03/01 12:21:18;;;;;;;21.80;6.55;;;24.30;49.60;;;;;;5047242;28;20376;-56
2024/03/01 12:24:15;;;;;;;16.35;6.13;;;24.20;49.70;;;;;;5048945;28;20048;-55
2024/03/01 12:27:09;;;;;;;24.40;8.15;;;24.20;49.80;;;;;;5046717;28;20052;-56
2024/03/01 12:29:55;;;;;;;;;;;24.20;49.70;;;;;;5076761;28;20056;-55
2024/03/01 12:32:38;;;;;;;19.15;8.30;;;24.20;49.60;;;;;;5048970;28;19921;-56
2024/03/01 12:35:05;;;;;;;21.07;8.60;;;24.10;49.90;;;;;;5046527;28;20636;-55
2024/03/01 12:38:02;;;;;;;26.15;8.88;;;24.00;49.80;;;;;;5048867;28;20056;-56
2024/03/01 12:40:37;;;;;;;23.20;8.57;;;23.90;49.80;;;;;;5046501;28;20048;-57
2024/03/01 12:43:10;;;;;;;17.30;8.13;;;23.90;50.00;;;;;;5048373;28;20081;-58
2024/03/01 12:45:47;;;;;;;20.60;7.70;;;23.90;50.10;;;;;;5046754;28;20049;-56
2024/03/01 12:48:38;;;;;;;23.17;8.25;;;23.80;50.00;;;;;;5077668;28;20106;-54
2024/03/01 12:51:21;;;;;;;24.13;8.38;;;23.70;50.00;;;;;;5052720;28;20468;-55
2024/03/01 12:54:02;;;;;;;22.40;7.82;;;23.70;50.10;;;;;;5051967;28;20045;-56
2024/03/01 12:56:33;;;;;;;18.95;8.05;;;23.70;50.10;;;;;;5045957;28;20052;-57
2024/03/01 12:59:09;;;;;;;20.05;8.02;;;23.60;50.10;;;;;;5066190;28;20047;-56
2024/03/01 13:01:49;;;;;;;19.08;7.68;;;23.60;50.10;;;;;;5044932;28;20386;-56
2024/03/01 13:14:51;;;;;;;;;;;24.70;49.60;;;;;;5100712;27;19934;-92
2024/03/01 13:17:27;;;;;;;;;;;24.40;49.20;;;;;;4969793;28;19979;-90
2024/03/01 13:23:18;;;;;;;;;;;23.70;49.80;;;;;;5048276;28;20402;-83
2024/03/01 13:25:45;;;;;;;;;;;22.80;50.20;;;;;;5044842;28;19956;-84